createdAt,value
2023-05-13T00:02:01.001Z,8.00
2023-05-13T00:05:03.901Z,8.85
2023-05-13T00:08:09.397Z,8.50
2023-05-13T00:11:11.870Z,7.90
2023-05-13T00:14:14.150Z,8.88
2023-05-13T00:17:17.252Z,8.13
2023-05-13T00:20:20.612Z,8.57
2023-05-13T00:23:23.324Z,7.32
2023-05-13T00:26:25.571Z,8.73
2023-05-13T00:29:28.331Z,7.00
2023-05-13T00:32:31.590Z,8.37
2023-05-13T00:35:34.111Z,7.43
2023-05-13T00:38:37.074Z,7.93
2023-05-13T00:41:39.693Z,7.70
2023-05-13T00:44:42.240Z,7.68
2023-05-13T00:47:45.225Z,7.63
2023-05-13T00:50:48.572Z,8.18
2023-05-13T00:56:56.649Z,7.93
2023-05-13T00:59:59.890Z,7.75
2023-05-13T01:03:29.387Z,8.00
2023-05-13T01:06:56.941Z,7.57
2023-05-13T01:10:20.128Z,7.35
2023-05-13T01:13:28.615Z,7.95
2023-05-13T01:16:39.575Z,7.95
2023-05-13T01:19:49.617Z,7.28
2023-05-13T01:22:51.908Z,7.57
2023-05-13T01:25:54.638Z,7.77
2023-05-13T01:28:57.512Z,8.10
2023-05-13T01:32:01.214Z,8.77
2023-05-13T01:35:04.426Z,7.85
2023-05-13T01:38:09.034Z,7.95
2023-05-13T01:41:11.761Z,7.87
2023-05-13T01:44:14.298Z,8.00
2023-05-13T01:47:16.751Z,8.15
2023-05-13T01:50:20.183Z,9.57
2023-05-13T01:53:22.772Z,8.30
2023-05-13T01:56:26.229Z,10.93
2023-05-13T01:59:28.845Z,12.30
2023-05-13T02:02:31.474Z,11.37
2023-05-13T02:05:34.557Z,10.80
2023-05-13T02:08:37.667Z,12.15
2023-05-13T02:11:40.494Z,11.68
2023-05-13T02:14:42.850Z,11.38
2023-05-13T02:17:45.548Z,13.73
2023-05-13T02:20:48.644Z,10.18
2023-05-13T02:23:51.914Z,11.88
2023-05-13T02:26:54.511Z,11.10
2023-05-13T02:29:57.196Z,9.48
2023-05-13T02:33:01.210Z,10.73
2023-05-13T02:36:04.470Z,9.35
2023-05-13T02:39:07.274Z,8.45
2023-05-13T02:42:10.544Z,8.85
2023-05-13T02:45:12.912Z,7.70
2023-05-13T02:51:20.001Z,9.13
2023-05-13T02:54:23.076Z,7.22
2023-05-13T02:57:25.483Z,9.15
2023-05-13T03:00:28.189Z,6.80
2023-05-13T03:03:31.231Z,7.78
2023-05-13T03:06:33.928Z,7.22
2023-05-13T03:09:39.137Z,7.80
2023-05-13T03:12:43.399Z,7.25
2023-05-13T03:15:45.738Z,6.80
2023-05-13T03:18:48.490Z,8.43
2023-05-13T03:21:51.698Z,7.25
2023-05-13T03:24:54.617Z,7.37
2023-05-13T03:27:58.270Z,6.85
2023-05-13T03:31:02.133Z,7.28
2023-05-13T03:34:05.356Z,7.10
2023-05-13T03:37:08.922Z,7.17
2023-05-13T03:40:11.969Z,7.35
2023-05-13T03:43:15.040Z,8.60
2023-05-13T03:46:17.896Z,7.10
2023-05-13T03:49:20.677Z,7.10
2023-05-13T03:52:23.473Z,8.80
2023-05-13T03:55:26.303Z,9.10
2023-05-13T04:01:33.232Z,8.00
2023-05-13T04:04:36.005Z,6.57
2023-05-13T04:07:38.392Z,7.12
2023-05-13T04:10:40.887Z,7.45
2023-05-13T04:13:44.261Z,6.95
2023-05-13T04:16:47.047Z,7.55
2023-05-13T04:19:52.895Z,6.93
2023-05-13T04:22:55.644Z,6.55
2023-05-13T04:25:58.260Z,7.27
2023-05-13T04:29:01.214Z,8.20
2023-05-13T04:32:03.759Z,7.35
2023-05-13T04:35:09.592Z,7.15
2023-05-13T04:38:13.032Z,7.20
2023-05-13T04:41:15.806Z,7.50
2023-05-13T04:44:19.148Z,8.95
2023-05-13T04:47:22.870Z,6.70
2023-05-13T04:50:26.051Z,7.23
2023-05-13T04:53:29.834Z,7.97
2023-05-13T04:56:32.713Z,6.70
2023-05-13T04:59:36.150Z,6.40
2023-05-13T05:02:38.811Z,7.32
2023-05-13T05:05:41.822Z,8.00
2023-05-13T05:08:44.602Z,7.23
2023-05-13T05:11:50.346Z,7.78
2023-05-13T05:14:53.061Z,8.50
2023-05-13T05:17:57.055Z,8.20
2023-05-13T05:24:06.243Z,7.15
2023-05-13T05:27:08.859Z,7.12
2023-05-13T05:30:12.528Z,8.60
2023-05-13T05:33:15.397Z,6.45
2023-05-13T05:36:18.431Z,7.10
2023-05-13T05:39:21.243Z,7.90
2023-05-13T05:42:24.147Z,9.10
2023-05-13T05:45:26.654Z,6.72
2023-05-13T05:48:29.748Z,7.15
2023-05-13T05:51:32.428Z,7.53
2023-05-13T05:57:38.178Z,7.90
2023-05-13T06:00:40.734Z,7.57
2023-05-13T06:03:43.353Z,6.68
2023-05-13T06:06:46.115Z,7.93
2023-05-13T06:09:48.998Z,6.93
2023-05-13T06:12:51.559Z,7.78
2023-05-13T06:15:54.165Z,8.53
2023-05-13T06:18:56.627Z,8.88
2023-05-13T06:22:02.616Z,7.75
2023-05-13T06:25:06.540Z,8.13
2023-05-13T06:28:12.029Z,7.95
2023-05-13T06:31:15.046Z,7.82
2023-05-13T06:34:19.415Z,7.05
2023-05-13T06:37:21.761Z,7.85
2023-05-13T06:40:25.278Z,7.00
2023-05-13T06:43:28.639Z,7.32
2023-05-13T06:46:31.588Z,7.82
2023-05-13T06:49:34.269Z,7.18
2023-05-13T06:52:38.612Z,7.62
2023-05-13T06:55:42.689Z,7.78
2023-05-13T06:58:45.660Z,7.18
2023-05-13T07:01:48.013Z,7.87
2023-05-13T07:04:50.617Z,7.10
2023-05-13T07:07:53.755Z,7.35
2023-05-13T07:10:56.433Z,7.55
2023-05-13T07:13:58.775Z,7.40
2023-05-13T07:17:02.267Z,6.28
2023-05-13T07:20:05.230Z,5.70
2023-05-13T07:23:07.819Z,5.57
2023-05-13T07:26:10.390Z,5.35
2023-05-13T07:29:12.954Z,5.25
2023-05-13T07:32:15.806Z,4.50
2023-05-13T07:35:18.633Z,5.45
2023-05-13T07:38:21.386Z,6.18
2023-05-13T07:41:23.880Z,4.85
2023-05-13T07:44:26.482Z,5.72
2023-05-13T07:47:31.326Z,5.80
2023-05-13T07:50:33.708Z,6.97
2023-05-13T07:53:36.760Z,8.02
2023-05-13T07:56:39.140Z,7.12
2023-05-13T07:59:44.514Z,7.50
2023-05-13T08:02:47.179Z,7.60
2023-05-13T08:05:49.912Z,8.23
2023-05-13T08:08:52.144Z,7.15
2023-05-13T08:11:55.160Z,7.37
2023-05-13T08:14:57.470Z,7.25
2023-05-13T08:18:00.810Z,6.93
2023-05-13T08:21:03.342Z,8.20
2023-05-13T08:24:06.593Z,6.93
2023-05-13T08:27:08.903Z,7.90
2023-05-13T08:30:11.885Z,6.85
2023-05-13T08:33:14.207Z,8.07
2023-05-13T08:36:17.132Z,7.95
2023-05-13T08:39:19.767Z,6.35
2023-05-13T08:42:24.578Z,6.87
2023-05-13T08:45:29.515Z,6.43
2023-05-13T08:48:33.988Z,6.20
2023-05-13T08:51:36.325Z,6.57
2023-05-13T08:54:39.769Z,6.10
2023-05-13T08:57:42.062Z,7.80
2023-05-13T09:00:45.078Z,6.03
2023-05-13T09:03:59.873Z,6.47
2023-05-13T09:07:02.711Z,7.22
2023-05-13T09:10:08.623Z,6.83
2023-05-13T09:13:17.157Z,6.07
2023-05-13T09:16:19.818Z,7.60
2023-05-13T09:19:24.807Z,6.87
2023-05-13T09:22:27.499Z,7.47
2023-05-13T09:25:31.119Z,7.27
2023-05-13T09:28:33.820Z,6.15
2023-05-13T09:31:36.378Z,6.43
2023-05-13T09:34:40.235Z,5.82
2023-05-13T09:37:47.433Z,5.75
2023-05-13T09:40:59.676Z,5.47
2023-05-13T09:44:04.032Z,5.30
2023-05-13T09:47:06.451Z,6.43
2023-05-13T09:50:12.371Z,5.57
2023-05-13T09:53:14.555Z,5.50
2023-05-13T09:56:24.104Z,5.35
2023-05-13T09:59:26.580Z,6.35
2023-05-13T10:02:29.452Z,6.55
2023-05-13T10:05:33.236Z,7.07
2023-05-13T10:08:36.386Z,6.85
2023-05-13T10:11:41.282Z,7.12
2023-05-13T10:14:44.144Z,6.47
2023-05-13T10:17:47.712Z,6.75
2023-05-13T10:20:53.637Z,6.50
2023-05-13T10:23:57.092Z,6.45
2023-05-13T10:27:01.794Z,6.40
2023-05-13T10:30:09.706Z,7.32
2023-05-13T10:33:12.354Z,6.90
2023-05-13T10:36:37.048Z,6.20
2023-05-13T10:40:05.205Z,5.57
2023-05-13T10:43:13.356Z,5.62
2023-05-13T10:46:16.275Z,6.95
2023-05-13T10:49:18.906Z,6.65
2023-05-13T10:52:21.477Z,7.72
2023-05-13T10:55:26.255Z,6.07
2023-05-13T10:58:34.053Z,6.22
2023-05-13T11:01:43.256Z,6.57
2023-05-13T11:05:01.622Z,6.32
2023-05-13T11:08:04.557Z,7.05
2023-05-13T11:11:19.313Z,6.70
2023-05-13T11:14:24.789Z,6.90
2023-05-13T11:17:27.151Z,7.05
2023-05-13T11:20:33.775Z,5.83
2023-05-13T11:24:00.899Z,6.07
2023-05-13T11:27:20.549Z,7.55
2023-05-13T11:30:26.209Z,7.25
2023-05-13T11:34:09.414Z,7.10
2023-05-13T11:37:12.131Z,8.77
2023-05-13T11:40:25.876Z,6.00
2023-05-13T11:43:29.566Z,6.87
2023-05-13T11:49:45.372Z,6.43
2023-05-13T11:56:09.176Z,6.47
2023-05-13T11:59:15.633Z,6.85
2023-05-13T12:02:23.214Z,6.65
2023-05-13T12:05:26.981Z,6.72
2023-05-13T12:08:30.106Z,6.55
2023-05-13T12:11:33.479Z,6.57
2023-05-13T12:14:35.882Z,6.20
2023-05-13T12:17:38.732Z,6.40
2023-05-13T12:20:41.205Z,6.33
2023-05-13T12:23:43.767Z,6.83
2023-05-13T12:26:46.210Z,6.00
2023-05-13T12:29:49.889Z,7.13
2023-05-13T12:32:52.226Z,5.95
2023-05-13T12:36:15.742Z,5.90
2023-05-13T12:39:20.601Z,5.67
2023-05-13T12:42:23.152Z,6.30
2023-05-13T12:45:33.000Z,6.32
2023-05-13T12:48:35.651Z,6.15
2023-05-13T12:51:37.915Z,6.37
2023-05-13T12:54:40.589Z,6.43
2023-05-13T12:57:43.099Z,6.07
2023-05-13T13:00:46.211Z,6.80
2023-05-13T13:03:48.548Z,6.63
2023-05-13T13:06:51.493Z,6.15
2023-05-13T13:09:55.428Z,6.80
2023-05-13T13:12:58.013Z,6.32
2023-05-13T13:16:01.528Z,6.60
2023-05-13T13:22:06.260Z,6.05
2023-05-13T13:25:09.305Z,5.72
2023-05-13T13:28:11.644Z,5.57
2023-05-13T13:31:14.545Z,6.18
2023-05-13T13:34:16.774Z,6.00
2023-05-13T13:37:19.279Z,5.78
2023-05-13T13:40:21.906Z,6.03
2023-05-13T13:43:24.819Z,6.50
2023-05-13T13:46:27.578Z,6.00
2023-05-13T13:49:30.389Z,5.50
2023-05-13T13:52:33.020Z,5.47
2023-05-13T13:55:35.614Z,6.50
2023-05-13T13:58:38.178Z,6.93
2023-05-13T14:01:40.761Z,5.75
2023-05-13T14:04:43.254Z,5.43
2023-05-13T14:07:46.362Z,7.07
2023-05-13T14:10:49.296Z,5.37
2023-05-13T14:13:51.867Z,6.60
2023-05-13T14:16:54.411Z,5.25
2023-05-13T14:19:57.036Z,6.35
2023-05-13T14:22:59.966Z,5.78
2023-05-13T14:26:02.524Z,6.25
2023-05-13T14:29:05.303Z,5.43
2023-05-13T14:32:07.726Z,6.15
2023-05-13T14:35:10.491Z,5.47
2023-05-13T14:38:13.020Z,6.32
2023-05-13T14:41:20.744Z,6.90
2023-05-13T14:44:22.928Z,6.18
2023-05-13T14:47:25.505Z,5.95
2023-05-13T14:50:27.740Z,6.90
2023-05-13T14:53:30.668Z,6.30
2023-05-13T14:56:33.038Z,5.85
2023-05-13T14:59:35.733Z,5.53
2023-05-13T15:02:38.829Z,6.05
2023-05-13T15:05:43.985Z,5.05
2023-05-13T15:08:47.003Z,5.87
2023-05-13T15:11:49.615Z,6.05
2023-05-13T15:14:53.465Z,5.90
2023-05-13T15:17:56.134Z,6.82
2023-05-13T15:20:58.681Z,5.47
2023-05-13T15:24:01.319Z,6.18
2023-05-13T15:27:03.848Z,6.43
2023-05-13T15:30:07.110Z,6.30
2023-05-13T15:33:09.853Z,5.90
2023-05-13T15:36:12.529Z,6.07
2023-05-13T15:39:16.581Z,5.90
2023-05-13T15:42:19.265Z,5.55
2023-05-13T15:45:21.604Z,5.90
2023-05-13T15:48:24.346Z,6.03
2023-05-13T15:51:26.974Z,6.72
2023-05-13T15:54:29.601Z,5.80
2023-05-13T15:57:31.938Z,6.87
2023-05-13T16:00:34.504Z,5.68
2023-05-13T16:03:38.667Z,5.68
2023-05-13T16:06:41.484Z,5.97
2023-05-13T16:09:44.429Z,6.10
2023-05-13T16:12:46.809Z,5.80
2023-05-13T16:15:49.749Z,5.95
2023-05-13T16:18:52.501Z,6.40
2023-05-13T16:21:55.603Z,6.18
2023-05-13T16:25:02.473Z,5.80
2023-05-13T16:28:05.700Z,5.45
2023-05-13T16:31:07.986Z,5.68
2023-05-13T16:34:10.673Z,5.27
2023-05-13T16:37:13.059Z,6.32
2023-05-13T16:40:15.686Z,6.20
2023-05-13T16:43:17.871Z,6.30
2023-05-13T16:46:20.382Z,5.75
2023-05-13T16:49:23.006Z,6.57
2023-05-13T16:52:26.372Z,5.93
2023-05-13T16:55:28.638Z,6.60
2023-05-13T16:58:31.539Z,5.55
2023-05-13T17:01:33.865Z,6.43
2023-05-13T17:04:36.931Z,6.33
2023-05-13T17:07:39.619Z,6.67
2023-05-13T17:10:42.305Z,6.00
2023-05-13T17:13:45.241Z,6.20
2023-05-13T17:16:48.086Z,6.03
2023-05-13T17:19:50.493Z,6.60
2023-05-13T17:22:53.038Z,6.60
2023-05-13T17:25:55.272Z,6.65
2023-05-13T17:28:58.194Z,6.55
2023-05-13T17:32:00.404Z,5.80
2023-05-13T17:35:05.367Z,5.93
2023-05-13T17:38:08.034Z,6.05
2023-05-13T17:41:10.763Z,5.78
2023-05-13T17:44:13.130Z,6.03
2023-05-13T17:47:16.493Z,5.90
2023-05-13T17:50:19.783Z,5.32
2023-05-13T17:53:22.748Z,6.00
2023-05-13T17:56:25.255Z,5.75
2023-05-13T17:59:27.916Z,5.90
2023-05-13T18:02:30.257Z,6.25
2023-05-13T18:05:33.308Z,5.78
2023-05-13T18:08:36.125Z,6.32
2023-05-13T18:11:38.809Z,7.68
2023-05-13T18:14:41.136Z,6.68
2023-05-13T18:17:43.836Z,6.03
2023-05-13T18:20:46.197Z,5.85
2023-05-13T18:23:48.748Z,5.82
2023-05-13T18:26:51.300Z,7.35
2023-05-13T18:29:53.814Z,6.30
2023-05-13T18:32:56.120Z,7.03
2023-05-13T18:35:58.814Z,7.23
2023-05-13T18:39:01.105Z,6.10
2023-05-13T18:42:03.756Z,7.53
2023-05-13T18:45:06.683Z,7.20
2023-05-13T18:48:09.191Z,7.93
2023-05-13T18:51:11.888Z,6.87
2023-05-13T18:54:14.523Z,7.57
2023-05-13T18:57:17.194Z,8.38
2023-05-13T19:00:20.093Z,8.07
2023-05-13T19:03:22.410Z,7.05
2023-05-13T19:06:25.179Z,6.93
2023-05-13T19:09:27.364Z,7.72
2023-05-13T19:12:29.999Z,7.37
2023-05-13T19:15:33.301Z,7.22
2023-05-13T19:21:38.380Z,7.32
2023-05-13T19:24:41.249Z,7.32
2023-05-13T19:27:44.482Z,7.62
2023-05-13T19:30:47.212Z,6.85
2023-05-13T19:33:49.404Z,6.78
2023-05-13T19:36:51.925Z,6.80
2023-05-13T19:39:54.116Z,7.55
2023-05-13T19:42:57.011Z,6.53
2023-05-13T19:45:59.322Z,7.03
2023-05-13T19:49:02.181Z,6.50
2023-05-13T19:52:04.790Z,7.00
2023-05-13T19:55:07.917Z,7.15
2023-05-13T19:58:10.562Z,6.55
2023-05-13T20:01:14.862Z,6.65
2023-05-13T20:04:17.751Z,6.97
2023-05-13T20:07:20.357Z,7.45
2023-05-13T20:10:23.520Z,7.80
2023-05-13T20:13:26.104Z,7.20
2023-05-13T20:16:28.887Z,6.87
2023-05-13T20:19:32.020Z,6.50
2023-05-13T20:22:35.143Z,7.22
2023-05-13T20:25:37.682Z,6.83
2023-05-13T20:28:40.243Z,7.03
2023-05-13T20:31:43.192Z,7.90
2023-05-13T20:34:46.094Z,7.57
2023-05-13T20:37:48.702Z,7.37
2023-05-13T20:40:51.196Z,6.70
2023-05-13T20:43:53.833Z,6.87
2023-05-13T20:46:56.467Z,6.82
2023-05-13T20:49:58.796Z,6.35
2023-05-13T20:53:01.484Z,5.97
2023-05-13T20:56:04.531Z,6.68
2023-05-13T21:02:09.920Z,6.07
2023-05-13T21:05:12.819Z,7.03
2023-05-13T21:08:16.131Z,6.60
2023-05-13T21:14:20.659Z,8.52
2023-05-13T21:17:24.609Z,7.12
2023-05-13T21:20:27.338Z,7.05
2023-05-13T21:23:30.473Z,8.50
2023-05-13T21:26:33.472Z,6.97
2023-05-13T21:29:36.431Z,7.45
2023-05-13T21:32:38.647Z,7.57
2023-05-13T21:35:41.225Z,7.65
2023-05-13T21:38:43.686Z,7.22
2023-05-13T21:41:47.636Z,8.38
2023-05-13T21:44:49.927Z,7.37
2023-05-13T21:47:52.594Z,7.00
2023-05-13T21:50:55.610Z,7.53
2023-05-13T21:53:58.136Z,8.32
2023-05-13T21:57:01.182Z,7.75
2023-05-13T22:00:10.512Z,7.65
2023-05-13T22:03:18.234Z,6.95
2023-05-13T22:06:20.802Z,7.12
2023-05-13T22:09:23.382Z,7.43
2023-05-13T22:12:26.898Z,8.35
2023-05-13T22:15:29.171Z,7.40
2023-05-13T22:18:32.204Z,8.10
2023-05-13T22:21:34.631Z,6.53
2023-05-13T22:24:37.274Z,7.40
2023-05-13T22:27:39.684Z,7.47
2023-05-13T22:30:42.390Z,7.00
2023-05-13T22:33:44.606Z,7.00
2023-05-13T22:36:47.488Z,6.80
2023-05-13T22:39:49.696Z,6.93
2023-05-13T22:42:52.327Z,6.82
2023-05-13T22:45:55.017Z,7.07
2023-05-13T22:48:57.689Z,7.37
2023-05-13T22:52:00.132Z,6.97
2023-05-13T22:55:03.103Z,7.25
2023-05-13T22:58:05.629Z,7.65
2023-05-13T23:01:08.478Z,7.40
2023-05-13T23:04:10.991Z,6.85
2023-05-13T23:07:13.694Z,6.43
2023-05-13T23:10:16.080Z,6.95
2023-05-13T23:13:18.985Z,7.78
2023-05-13T23:16:21.311Z,6.40
2023-05-13T23:19:26.572Z,6.45
2023-05-13T23:22:29.198Z,7.60
2023-05-13T23:25:31.697Z,6.45
2023-05-13T23:28:35.092Z,6.90
2023-05-13T23:34:42.856Z,6.80
2023-05-13T23:37:45.478Z,7.03
2023-05-13T23:40:48.441Z,7.00
2023-05-13T23:43:51.045Z,7.50
2023-05-13T23:46:53.343Z,6.57
2023-05-13T23:49:57.942Z,6.22
2023-05-13T23:53:01.191Z,7.70
2023-05-13T23:56:04.086Z,7.45
2023-05-13T23:59:06.233Z,7.32
